Thunder radar more information blitzortung!


Radar de pluja more information rain snow radar


Visita la nostra xarxa de llocs de meteo:

Template documentation
and downloads

And another site



No particular awareness of the weather is required.    There are no Weather-warnings

Pagina Historial Weather Underground text

Diari Resum Novembre 19, 2017 Unitats:  Tant    Imperial   Mètric
« Previous Dia
SegĂźent Dia »
Diari Setmana Mensual Anual Personalitzada
  Maxima: Minima: Media:
Temperatura: 61.5 °F /  16.4 °C 40.1 °F /  4.5 °C 50.4 °F /  10.2 °C
Punt de rosada: 43.7 °F /  6.5 °C 29.7 °F /  -1.3 °C 36 °F /  2.2 °C
Humitat: 69 % 51 % 58 %
Wind Speed: 5.8 mph /  9.3 km/h - 1.9 mph /  3 km/h
RĂ fegues de vent: 6 mph /  9.7 km/h - -
Vent:- - South
Pression baro: 30.2 in /  1023.9 hPa 30.1 in /  1019.9 hPa -
Precipitacions: 0 in /  0.0 mm    
Historical Graphs
 
 
Dades de taula per Novembre 19, 2017
Temps Temperatura Punt de rosada Pression baro Vent Wind Speed RĂ fegues de vent Humitat Rainfall Rate (Hourly)
00:00 40.8 °F /  4.9 °C 30 °F /  -1.1 °C 30.1 in /  1019.9 hPa North 1 mph /  1.6 km/h 3 mph /  4.8 km/h 65 % 0 in /  0.0 mm
00:04 45 °F /  7.2 °C 30.2 °F /  -1.0 °C 30.2 in /  1021.9 hPa WSW 2.3 mph /  3.7 km/h 2.3 mph /  3.7 km/h 56 % 0 in /  0.0 mm
00:09 45 °F /  7.2 °C 30.2 °F /  -1.0 °C 30.2 in /  1021.9 hPa WSW 2.3 mph /  3.7 km/h 2.3 mph /  3.7 km/h 56 % 0 in /  0.0 mm
00:10 40.6 °F /  4.8 °C 29.8 °F /  -1.2 °C 30.1 in /  1019.9 hPa North 2 mph /  3.2 km/h 2 mph /  3.2 km/h 65 % 0 in /  0.0 mm
00:14 45.3 °F /  7.4 °C 30.6 °F /  -0.8 °C 30.2 in /  1021.9 hPa WSW 2.3 mph /  3.7 km/h 2.3 mph /  3.7 km/h 56 % 0 in /  0.0 mm
00:19 45 °F /  7.2 °C 30.2 °F /  -1.0 °C 30.2 in /  1020.9 hPa NNE 1.2 mph /  1.9 km/h 1.2 mph /  1.9 km/h 56 % 0 in /  0.0 mm
00:20 41.2 °F /  5.1 °C 30.4 °F /  -0.9 °C 30.1 in /  1019.9 hPa NW 2 mph /  3.2 km/h 3 mph /  4.8 km/h 65 % 0 in /  0.0 mm
00:24 45.3 °F /  7.4 °C 30.6 °F /  -0.8 °C 30.2 in /  1020.9 hPa WNW 2.3 mph /  3.7 km/h 2.3 mph /  3.7 km/h 56 % 0 in /  0.0 mm
00:29 45.5 °F /  7.5 °C 31.1 °F /  -0.5 °C 30.2 in /  1020.9 hPa WNW 1.2 mph /  1.9 km/h   57 % 0 in /  0.0 mm
00:30 41.2 °F /  5.1 °C 30.4 °F /  -0.9 °C 30.1 in /  1019.9 hPa NNW 1 mph /  1.6 km/h 2 mph /  3.2 km/h 65 % 0 in /  0.0 mm
00:34 45.3 °F /  7.4 °C 30.9 °F /  -0.6 °C 30.2 in /  1020.9 hPa Calm     57 % 0 in /  0.0 mm
00:39 45.1 °F /  7.3 °C 30.7 °F /  -0.7 °C 30.2 in /  1020.9 hPa Calm     57 % 0 in /  0.0 mm
00:40 41.2 °F /  5.1 °C 30.4 °F /  -0.9 °C 30.1 in /  1019.9 hPa NNW 2 mph /  3.2 km/h 3 mph /  4.8 km/h 65 % 0 in /  0.0 mm
00:44 45.1 °F /  7.3 °C 30.7 °F /  -0.7 °C 30.2 in /  1020.9 hPa WNW 1.2 mph /  1.9 km/h 1.2 mph /  1.9 km/h 57 % 0 in /  0.0 mm
00:49 45.1 °F /  7.3 °C 30.7 °F /  -0.7 °C 30.2 in /  1020.9 hPa Calm     57 % 0 in /  0.0 mm
00:50 40.6 °F /  4.8 °C 29.8 °F /  -1.2 °C 30.1 in /  1019.9 hPa NW 1 mph /  1.6 km/h 2 mph /  3.2 km/h 65 % 0 in /  0.0 mm
01:10 40.5 °F /  4.7 °C 29.7 °F /  -1.3 °C 30.1 in /  1019.9 hPa West 2 mph /  3.2 km/h 2 mph /  3.2 km/h 65 % 0 in /  0.0 mm
01:20 40.6 °F /  4.8 °C 30.2 °F /  -1.0 °C 30.1 in /  1019.9 hPa West 1 mph /  1.6 km/h 2 mph /  3.2 km/h 66 % 0 in /  0.0 mm
01:40 40.8 °F /  4.9 °C 30.4 °F /  -0.9 °C 30.1 in /  1019.9 hPa NW 1 mph /  1.6 km/h 3 mph /  4.8 km/h 66 % 0 in /  0.0 mm
01:50 41.2 °F /  5.1 °C 30.7 °F /  -0.7 °C 30.1 in /  1019.9 hPa NNE 3 mph /  4.8 km/h 4 mph /  6.4 km/h 66 % 0 in /  0.0 mm
02:00 41 °F /  5.0 °C 30.6 °F /  -0.8 °C 30.2 in /  1020.9 hPa Calm   4 mph /  6.4 km/h 66 % 0 in /  0.0 mm
02:10 41.2 °F /  5.1 °C 30.7 °F /  -0.7 °C 30.2 in /  1020.9 hPa North 2 mph /  3.2 km/h 3 mph /  4.8 km/h 66 % 0 in /  0.0 mm
02:40 42.8 °F /  6.0 °C 32.2 °F /  0.1 °C 30.2 in /  1021.9 hPa NE 1 mph /  1.6 km/h 2 mph /  3.2 km/h 66 % 0 in /  0.0 mm
03:00 43 °F /  6.1 °C 32 °F /  0.0 °C 30.2 in /  1021.9 hPa NNE 3 mph /  4.8 km/h 3 mph /  4.8 km/h 65 % 0 in /  0.0 mm
03:10 43.3 °F /  6.3 °C 32.4 °F /  0.2 °C 30.2 in /  1021.9 hPa NNE 2 mph /  3.2 km/h 4 mph /  6.4 km/h 65 % 0 in /  0.0 mm
03:20 43.9 °F /  6.6 °C 32.9 °F /  0.5 °C 30.2 in /  1021.9 hPa North 2 mph /  3.2 km/h 3 mph /  4.8 km/h 65 % 0 in /  0.0 mm
03:30 44.6 °F /  7.0 °C 33.3 °F /  0.7 °C 30.2 in /  1021.9 hPa North 2 mph /  3.2 km/h 3 mph /  4.8 km/h 64 % 0 in /  0.0 mm
03:50 45.5 °F /  7.5 °C 34 °F /  1.1 °C 30.2 in /  1021.9 hPa North 2 mph /  3.2 km/h 3 mph /  4.8 km/h 64 % 0 in /  0.0 mm
04:00 46.4 °F /  8.0 °C 34.5 °F /  1.4 °C 30.2 in /  1021.9 hPa NNE 2 mph /  3.2 km/h 4 mph /  6.4 km/h 63 % 0 in /  0.0 mm
04:10 47.5 °F /  8.6 °C 35.4 °F /  1.9 °C 30.2 in /  1022.9 hPa NNE 1 mph /  1.6 km/h 2 mph /  3.2 km/h 63 % 0 in /  0.0 mm
04:20 47.8 °F /  8.8 °C 35.4 °F /  1.9 °C 30.2 in /  1022.9 hPa NNE 2 mph /  3.2 km/h 4 mph /  6.4 km/h 62 % 0 in /  0.0 mm
04:30 48.4 °F /  9.1 °C 36 °F /  2.2 °C 30.2 in /  1022.9 hPa NNE 2 mph /  3.2 km/h 3 mph /  4.8 km/h 62 % 0 in /  0.0 mm
04:40 48.7 °F /  9.3 °C 36 °F /  2.2 °C 30.2 in /  1022.9 hPa North 3 mph /  4.8 km/h 3 mph /  4.8 km/h 61 % 0 in /  0.0 mm
04:50 48.6 °F /  9.2 °C 35.8 °F /  2.1 °C 30.2 in /  1022.9 hPa NNE 3 mph /  4.8 km/h 4 mph /  6.4 km/h 61 % 0 in /  0.0 mm
05:00 49.5 °F /  9.7 °C 36.7 °F /  2.6 °C 30.2 in /  1022.9 hPa NNE 3 mph /  4.8 km/h 6 mph /  9.7 km/h 61 % 0 in /  0.0 mm
11:10 50.4 °F /  10.2 °C 37 °F /  2.8 °C 30.2 in /  1022.9 hPa NE 3.6 mph /  5.8 km/h 3.6 mph /  5.8 km/h 60 % 0 in /  0.0 mm
11:15 50.5 °F /  10.3 °C 37.2 °F /  2.9 °C 30.2 in /  1022.9 hPa NNE 4.6 mph /  7.4 km/h 4.6 mph /  7.4 km/h 60 % 0 in /  0.0 mm
11:20 50.9 °F /  10.5 °C 37.6 °F /  3.1 °C 30.2 in /  1023.9 hPa ENE 3.6 mph /  5.8 km/h 3.6 mph /  5.8 km/h 60 % 0 in /  0.0 mm
11:30 51.4 °F /  10.8 °C 37.6 °F /  3.1 °C 30.2 in /  1023.9 hPa ENE 4.6 mph /  7.4 km/h 4.6 mph /  7.4 km/h 59 % 0 in /  0.0 mm
11:35 51.8 °F /  11.0 °C 37.9 °F /  3.3 °C 30.2 in /  1022.9 hPa North 4 mph /  6.4 km/h 4 mph /  6.4 km/h 59 % 0 in /  0.0 mm
11:40 51.8 °F /  11.0 °C 37.6 °F /  3.1 °C 30.2 in /  1022.9 hPa ENE 5.8 mph /  9.3 km/h 5.8 mph /  9.3 km/h 58 % 0 in /  0.0 mm
11:45 52.3 °F /  11.3 °C 38.5 °F /  3.6 °C 30.2 in /  1022.9 hPa ENE 2.3 mph /  3.7 km/h 2.3 mph /  3.7 km/h 59 % 0 in /  0.0 mm
11:50 52.7 °F /  11.5 °C 38.3 °F /  3.5 °C 30.2 in /  1022.9 hPa ENE 3.5 mph /  5.6 km/h 3.5 mph /  5.6 km/h 58 % 0 in /  0.0 mm
12:05 53.6 °F /  12.0 °C 39.2 °F /  4.0 °C 30.2 in /  1022.9 hPa NNE 2.3 mph /  3.7 km/h 2.3 mph /  3.7 km/h 58 % 0 in /  0.0 mm
12:10 54 °F /  12.2 °C 39 °F /  3.9 °C 30.2 in /  1022.9 hPa ENE 3.5 mph /  5.6 km/h 3.5 mph /  5.6 km/h 57 % 0 in /  0.0 mm
12:15 54.1 °F /  12.3 °C 39.2 °F /  4.0 °C 30.2 in /  1022.9 hPa ESE 5.8 mph /  9.3 km/h 5.8 mph /  9.3 km/h 57 % 0 in /  0.0 mm
12:20 54.5 °F /  12.5 °C 39.6 °F /  4.2 °C 30.2 in /  1022.9 hPa NNE 3.5 mph /  5.6 km/h 3.5 mph /  5.6 km/h 57 % 0 in /  0.0 mm
12:30 54.9 °F /  12.7 °C 39.6 °F /  4.2 °C 30.2 in /  1022.9 hPa North 4.6 mph /  7.4 km/h 4.6 mph /  7.4 km/h 56 % 0 in /  0.0 mm
12:45 55.4 °F /  13.0 °C 39.9 °F /  4.4 °C 30.2 in /  1022.9 hPa NNE 3.3 mph /  5.3 km/h 3.3 mph /  5.3 km/h 56 % 0 in /  0.0 mm
12:50 55.9 °F /  13.3 °C 40.5 °F /  4.7 °C 30.2 in /  1022.9 hPa NNE 2.3 mph /  3.7 km/h 2.3 mph /  3.7 km/h 56 % 0 in /  0.0 mm
12:55 55.9 °F /  13.3 °C 40.5 °F /  4.7 °C 30.2 in /  1022.9 hPa North 3.5 mph /  5.6 km/h 3.5 mph /  5.6 km/h 56 % 0 in /  0.0 mm
13:00 55.9 °F /  13.3 °C 39.9 °F /  4.4 °C 30.2 in /  1022.9 hPa East 3.5 mph /  5.6 km/h 3.5 mph /  5.6 km/h 55 % 0 in /  0.0 mm
13:10 56.5 °F /  13.6 °C 40.5 °F /  4.7 °C 30.2 in /  1021.9 hPa ENE 3.5 mph /  5.6 km/h 3.5 mph /  5.6 km/h 55 % 0 in /  0.0 mm
13:15 56.7 °F /  13.7 °C 40.6 °F /  4.8 °C 30.2 in /  1021.9 hPa NNE 4.7 mph /  7.6 km/h 4.7 mph /  7.6 km/h 55 % 0 in /  0.0 mm
13:20 56.8 °F /  13.8 °C 40.8 °F /  4.9 °C 30.2 in /  1021.9 hPa NE 3.6 mph /  5.8 km/h 3.6 mph /  5.8 km/h 55 % 0 in /  0.0 mm
13:25 57 °F /  13.9 °C 40.5 °F /  4.7 °C 30.2 in /  1021.9 hPa North 5.6 mph /  9.0 km/h 5.6 mph /  9.0 km/h 54 % 0 in /  0.0 mm
13:30 57 °F /  13.9 °C 40.5 °F /  4.7 °C 30.2 in /  1021.9 hPa ESE 3.6 mph /  5.8 km/h 3.6 mph /  5.8 km/h 54 % 0 in /  0.0 mm
13:35 57.2 °F /  14.0 °C 40.6 °F /  4.8 °C 30.2 in /  1021.9 hPa ENE 2.3 mph /  3.7 km/h 2.3 mph /  3.7 km/h 54 % 0 in /  0.0 mm
13:40 57.6 °F /  14.2 °C 41 °F /  5.0 °C 30.2 in /  1021.9 hPa NNW 3.5 mph /  5.6 km/h 3.5 mph /  5.6 km/h 54 % 0 in /  0.0 mm
13:45 57.7 °F /  14.3 °C 41.2 °F /  5.1 °C 30.2 in /  1021.9 hPa NNE 3.5 mph /  5.6 km/h 3.5 mph /  5.6 km/h 54 % 0 in /  0.0 mm
13:50 57.7 °F /  14.3 °C 41.2 °F /  5.1 °C 30.2 in /  1021.9 hPa NNW 2.3 mph /  3.7 km/h 2.3 mph /  3.7 km/h 54 % 0 in /  0.0 mm
14:00 57.9 °F /  14.4 °C 41.4 °F /  5.2 °C 30.2 in /  1021.9 hPa NE 2.3 mph /  3.7 km/h 2.3 mph /  3.7 km/h 54 % 0 in /  0.0 mm
14:05 58.3 °F /  14.6 °C 41.7 °F /  5.4 °C 30.2 in /  1021.9 hPa NNE 4.6 mph /  7.4 km/h 4.6 mph /  7.4 km/h 54 % 0 in /  0.0 mm
14:10 58.3 °F /  14.6 °C 41.7 °F /  5.4 °C 30.2 in /  1021.9 hPa NNE 4 mph /  6.4 km/h 4 mph /  6.4 km/h 54 % 0 in /  0.0 mm
14:15 58.5 °F /  14.7 °C 41.9 °F /  5.5 °C 30.2 in /  1021.9 hPa North 2.9 mph /  4.7 km/h 2.9 mph /  4.7 km/h 54 % 0 in /  0.0 mm
14:20 58.6 °F /  14.8 °C 42.1 °F /  5.6 °C 30.2 in /  1021.9 hPa NE 2.3 mph /  3.7 km/h 2.3 mph /  3.7 km/h 54 % 0 in /  0.0 mm
14:35 59 °F /  15.0 °C 41.9 °F /  5.5 °C 30.2 in /  1021.9 hPa NNE 2.4 mph /  3.9 km/h 2.4 mph /  3.9 km/h 53 % 0 in /  0.0 mm
14:40 59 °F /  15.0 °C 41.9 °F /  5.5 °C 30.2 in /  1021.9 hPa NNE 4.6 mph /  7.4 km/h 4.6 mph /  7.4 km/h 53 % 0 in /  0.0 mm
14:50 59 °F /  15.0 °C 41.9 °F /  5.5 °C 30.2 in /  1020.9 hPa NNE 4.6 mph /  7.4 km/h 4.6 mph /  7.4 km/h 53 % 0 in /  0.0 mm
14:55 59.2 °F /  15.1 °C 42.1 °F /  5.6 °C 30.2 in /  1020.9 hPa ENE 2.2 mph /  3.5 km/h   53 % 0 in /  0.0 mm
15:00 59.4 °F /  15.2 °C 42.3 °F /  5.7 °C 30.2 in /  1020.9 hPa ENE 3.5 mph /  5.6 km/h 3.5 mph /  5.6 km/h 53 % 0 in /  0.0 mm
15:05 59.5 °F /  15.3 °C 42.4 °F /  5.8 °C 30.2 in /  1021.9 hPa NNE 1.2 mph /  1.9 km/h   53 % 0 in /  0.0 mm
15:10 59.5 °F /  15.3 °C 42.4 °F /  5.8 °C 30.2 in /  1021.9 hPa NE 2.3 mph /  3.7 km/h 2.3 mph /  3.7 km/h 53 % 0 in /  0.0 mm
15:15 59.7 °F /  15.4 °C 42.1 °F /  5.6 °C 30.2 in /  1021.9 hPa ENE 1.4 mph /  2.3 km/h 1.4 mph /  2.3 km/h 52 % 0 in /  0.0 mm
15:20 59.7 °F /  15.4 °C 42.1 °F /  5.6 °C 30.2 in /  1021.9 hPa NNE 3.5 mph /  5.6 km/h 3.5 mph /  5.6 km/h 52 % 0 in /  0.0 mm
15:25 59.7 °F /  15.4 °C 42.1 °F /  5.6 °C 30.2 in /  1021.9 hPa NE 1.6 mph /  2.6 km/h 1.6 mph /  2.6 km/h 52 % 0 in /  0.0 mm
15:30 59.7 °F /  15.4 °C 42.1 °F /  5.6 °C 30.2 in /  1021.9 hPa NNE 2.3 mph /  3.7 km/h 2.3 mph /  3.7 km/h 52 % 0 in /  0.0 mm
15:35 59.7 °F /  15.4 °C 42.1 °F /  5.6 °C 30.2 in /  1020.9 hPa NNE 2.3 mph /  3.7 km/h 2.3 mph /  3.7 km/h 52 % 0 in /  0.0 mm
15:41 59.9 °F /  15.5 °C 42.3 °F /  5.7 °C 30.2 in /  1020.9 hPa NNE 2.3 mph /  3.7 km/h 2.3 mph /  3.7 km/h 52 % 0 in /  0.0 mm
15:46 59.9 °F /  15.5 °C 42.3 °F /  5.7 °C 30.2 in /  1020.9 hPa NE 1.2 mph /  1.9 km/h   52 % 0 in /  0.0 mm
15:51 60.1 °F /  15.6 °C 42.4 °F /  5.8 °C 30.2 in /  1021.9 hPa North 1.2 mph /  1.9 km/h 1.2 mph /  1.9 km/h 52 % 0 in /  0.0 mm
15:56 60.1 °F /  15.6 °C 42.4 °F /  5.8 °C 30.2 in /  1021.9 hPa Calm     52 % 0 in /  0.0 mm
16:01 60.1 °F /  15.6 °C 42.4 °F /  5.8 °C 30.2 in /  1021.9 hPa NNE 1.2 mph /  1.9 km/h 1.2 mph /  1.9 km/h 52 % 0 in /  0.0 mm
16:06 60.1 °F /  15.6 °C 41.9 °F /  5.5 °C 30.2 in /  1021.9 hPa Calm     51 % 0 in /  0.0 mm
16:11 60.3 °F /  15.7 °C 42.1 °F /  5.6 °C 30.2 in /  1021.9 hPa ENE 1.6 mph /  2.6 km/h   51 % 0 in /  0.0 mm
16:16 61.3 °F /  16.3 °C 43.5 °F /  6.4 °C 30.2 in /  1021.9 hPa SW 2.3 mph /  3.7 km/h 2.3 mph /  3.7 km/h 52 % 0 in /  0.0 mm
16:21 61 °F /  16.1 °C 42.6 °F /  5.9 °C 30.2 in /  1021.9 hPa Calm     51 % 0 in /  0.0 mm
16:26 61 °F /  16.1 °C 42.6 °F /  5.9 °C 30.2 in /  1021.9 hPa SW 1.2 mph /  1.9 km/h 1.2 mph /  1.9 km/h 51 % 0 in /  0.0 mm
16:31 61.2 °F /  16.2 °C 43 °F /  6.1 °C 30.2 in /  1021.9 hPa Calm     51 % 0 in /  0.0 mm
16:36 61.5 °F /  16.4 °C 43.7 °F /  6.5 °C 30.2 in /  1021.9 hPa SW 1.4 mph /  2.3 km/h 1.4 mph /  2.3 km/h 52 % 0 in /  0.0 mm
16:41 61.2 °F /  16.2 °C 43.3 °F /  6.3 °C 30.2 in /  1021.9 hPa WNW 2.3 mph /  3.7 km/h 2.3 mph /  3.7 km/h 52 % 0 in /  0.0 mm
16:46 61.2 °F /  16.2 °C 43.3 °F /  6.3 °C 30.2 in /  1021.9 hPa WNW 4.6 mph /  7.4 km/h 4.6 mph /  7.4 km/h 52 % 0 in /  0.0 mm
16:51 60.8 °F /  16.0 °C 42.4 °F /  5.8 °C 30.2 in /  1021.9 hPa WNW 3.5 mph /  5.6 km/h 3.5 mph /  5.6 km/h 51 % 0 in /  0.0 mm
16:56 60.4 °F /  15.8 °C 42.3 °F /  5.7 °C 30.2 in /  1021.9 hPa NNW 2.3 mph /  3.7 km/h 2.3 mph /  3.7 km/h 51 % 0 in /  0.0 mm
17:01 59.9 °F /  15.5 °C 41.7 °F /  5.4 °C 30.2 in /  1021.9 hPa West 2.4 mph /  3.9 km/h 2.4 mph /  3.9 km/h 51 % 0 in /  0.0 mm
17:06 59.5 °F /  15.3 °C 41.4 °F /  5.2 °C 30.2 in /  1021.9 hPa NW 2.3 mph /  3.7 km/h 2.3 mph /  3.7 km/h 51 % 0 in /  0.0 mm
17:16 58.6 °F /  14.8 °C 40.6 °F /  4.8 °C 30.2 in /  1021.9 hPa WNW 2.3 mph /  3.7 km/h 2.3 mph /  3.7 km/h 51 % 0 in /  0.0 mm
17:21 58.3 °F /  14.6 °C 40.3 °F /  4.6 °C 30.2 in /  1021.9 hPa NW 1.2 mph /  1.9 km/h   51 % 0 in /  0.0 mm
17:31 57.2 °F /  14.0 °C 39.2 °F /  4.0 °C 30.2 in /  1021.9 hPa WNW 3.5 mph /  5.6 km/h 3.5 mph /  5.6 km/h 51 % 0 in /  0.0 mm
17:36 56.8 °F /  13.8 °C 38.8 °F /  3.8 °C 30.2 in /  1021.9 hPa WNW 2.3 mph /  3.7 km/h 2.3 mph /  3.7 km/h 51 % 0 in /  0.0 mm
17:41 56.7 °F /  13.7 °C 38.7 °F /  3.7 °C 30.2 in /  1021.9 hPa WNW 0.9 mph /  1.4 km/h   51 % 0 in /  0.0 mm
17:46 56.3 °F /  13.5 °C 38.8 °F /  3.8 °C 30.2 in /  1021.9 hPa NW 2.3 mph /  3.7 km/h 2.3 mph /  3.7 km/h 52 % 0 in /  0.0 mm
17:47 56.3 °F /  13.5 °C 38.8 °F /  3.8 °C 30.2 in /  1021.9 hPa NW 2.3 mph /  3.7 km/h 2.3 mph /  3.7 km/h 52 % 0 in /  0.0 mm
17:52 56.1 °F /  13.4 °C 38.7 °F /  3.7 °C 30.2 in /  1021.9 hPa NW 1.2 mph /  1.9 km/h 1.2 mph /  1.9 km/h 52 % 0 in /  0.0 mm
17:57 55.8 °F /  13.2 °C 38.5 °F /  3.6 °C 30.2 in /  1021.9 hPa Calm     52 % 0 in /  0.0 mm
18:02 55.6 °F /  13.1 °C 38.1 °F /  3.4 °C 30.2 in /  1021.9 hPa WSW 2.3 mph /  3.7 km/h 2.3 mph /  3.7 km/h 52 % 0 in /  0.0 mm
18:07 54.9 °F /  12.7 °C 37.6 °F /  3.1 °C 30.2 in /  1022.9 hPa SW 2.3 mph /  3.7 km/h 2.3 mph /  3.7 km/h 52 % 0 in /  0.0 mm
18:12 54.5 °F /  12.5 °C 37.2 °F /  2.9 °C 30.2 in /  1022.9 hPa SW 2.3 mph /  3.7 km/h 2.3 mph /  3.7 km/h 52 % 0 in /  0.0 mm
18:20 45.7 °F /  7.6 °C 33.4 °F /  0.8 °C 30.2 in /  1023.9 hPa Calm   4 mph /  6.4 km/h 62 % 0 in /  0.0 mm
18:27 53.8 °F /  12.1 °C 36.7 °F /  2.6 °C 30.2 in /  1022.9 hPa West 2.3 mph /  3.7 km/h 2.3 mph /  3.7 km/h 52 % 0 in /  0.0 mm
18:30 45.7 °F /  7.6 °C 33.4 °F /  0.8 °C 30.2 in /  1022.9 hPa Calm   1 mph /  1.6 km/h 62 % 0 in /  0.0 mm
18:32 53.8 °F /  12.1 °C 36.7 °F /  2.6 °C 30.2 in /  1022.9 hPa WSW 2.3 mph /  3.7 km/h 2.4 mph /  3.9 km/h 52 % 0 in /  0.0 mm
18:37 54 °F /  12.2 °C 37.2 °F /  2.9 °C 30.2 in /  1022.9 hPa West 4.6 mph /  7.4 km/h 4.6 mph /  7.4 km/h 53 % 0 in /  0.0 mm
18:40 45.3 °F /  7.4 °C 33.1 °F /  0.6 °C 30.2 in /  1022.9 hPa Calm   1 mph /  1.6 km/h 62 % 0 in /  0.0 mm
18:42 53.8 °F /  12.1 °C 37 °F /  2.8 °C 30.2 in /  1022.9 hPa WNW 2.3 mph /  3.7 km/h 2.3 mph /  3.7 km/h 53 % 0 in /  0.0 mm
18:47 53.8 °F /  12.1 °C 37 °F /  2.8 °C 30.2 in /  1022.9 hPa WSW 3.5 mph /  5.6 km/h 3.5 mph /  5.6 km/h 53 % 0 in /  0.0 mm
18:50 44.8 °F /  7.1 °C 32.9 °F /  0.5 °C 30.2 in /  1022.9 hPa Calm   2 mph /  3.2 km/h 63 % 0 in /  0.0 mm
18:57 53.6 °F /  12.0 °C 36.9 °F /  2.7 °C 30.2 in /  1022.9 hPa WSW 1.4 mph /  2.3 km/h 1.4 mph /  2.3 km/h 53 % 0 in /  0.0 mm
19:00 44.6 °F /  7.0 °C 32.7 °F /  0.4 °C 30.2 in /  1022.9 hPa Calm   1 mph /  1.6 km/h 63 % 0 in /  0.0 mm
19:10 44.2 °F /  6.8 °C 32.4 °F /  0.2 °C 30.2 in /  1022.9 hPa NW 1 mph /  1.6 km/h 2 mph /  3.2 km/h 63 % 0 in /  0.0 mm
19:12 52.5 °F /  11.4 °C 36 °F /  2.2 °C 30.2 in /  1022.9 hPa West 1.4 mph /  2.3 km/h 1.4 mph /  2.3 km/h 53 % 0 in /  0.0 mm
19:17 52.3 °F /  11.3 °C 35.8 °F /  2.1 °C 30.2 in /  1022.9 hPa SW 2.3 mph /  3.7 km/h 2.3 mph /  3.7 km/h 53 % 0 in /  0.0 mm
19:20 44.1 °F /  6.7 °C 32.4 °F /  0.2 °C 30.2 in /  1022.9 hPa North 1 mph /  1.6 km/h 1 mph /  1.6 km/h 63 % 0 in /  0.0 mm
19:22 52 °F /  11.1 °C 35.4 °F /  1.9 °C 30.2 in /  1022.9 hPa SW 2 mph /  3.2 km/h 2 mph /  3.2 km/h 53 % 0 in /  0.0 mm
19:27 51.8 °F /  11.0 °C 35.2 °F /  1.8 °C 30.2 in /  1022.9 hPa SW 2.4 mph /  3.9 km/h 2.4 mph /  3.9 km/h 53 % 0 in /  0.0 mm
19:32 51.4 °F /  10.8 °C 34.9 °F /  1.6 °C 30.2 in /  1022.9 hPa SW 2.4 mph /  3.9 km/h 2.4 mph /  3.9 km/h 53 % 0 in /  0.0 mm
19:40 43.7 °F /  6.5 °C 32.4 °F /  0.2 °C 30.2 in /  1022.9 hPa Calm   1 mph /  1.6 km/h 64 % 0 in /  0.0 mm
19:50 43.5 °F /  6.4 °C 32.2 °F /  0.1 °C 30.2 in /  1022.9 hPa North 1 mph /  1.6 km/h 2 mph /  3.2 km/h 64 % 0 in /  0.0 mm
19:52 50.5 °F /  10.3 °C 34.5 °F /  1.4 °C 30.2 in /  1022.9 hPa WSW 2.4 mph /  3.9 km/h 2.4 mph /  3.9 km/h 54 % 0 in /  0.0 mm
20:00 42.8 °F /  6.0 °C 31.5 °F /  -0.3 °C 30.2 in /  1022.9 hPa Calm   1 mph /  1.6 km/h 64 % 0 in /  0.0 mm
20:02 50 °F /  10.0 °C 34 °F /  1.1 °C 30.2 in /  1022.9 hPa WSW 2.3 mph /  3.7 km/h 2.3 mph /  3.7 km/h 54 % 0 in /  0.0 mm
20:07 49.8 °F /  9.9 °C 33.8 °F /  1.0 °C 30.2 in /  1022.9 hPa WSW 1.2 mph /  1.9 km/h 1.4 mph /  2.3 km/h 54 % 0 in /  0.0 mm
20:10 42.8 °F /  6.0 °C 31.8 °F /  -0.1 °C 30.2 in /  1023.9 hPa Calm     65 % 0 in /  0.0 mm
20:12 49.5 °F /  9.7 °C 34 °F /  1.1 °C 30.2 in /  1022.9 hPa Calm     55 % 0 in /  0.0 mm
20:20 42.8 °F /  6.0 °C 31.8 °F /  -0.1 °C 30.2 in /  1023.9 hPa West 1 mph /  1.6 km/h 1 mph /  1.6 km/h 65 % 0 in /  0.0 mm
20:30 42.6 °F /  5.9 °C 31.6 °F /  -0.2 °C 30.2 in /  1023.9 hPa Calm   1 mph /  1.6 km/h 65 % 0 in /  0.0 mm
20:32 48.9 °F /  9.4 °C 33.4 °F /  0.8 °C 30.2 in /  1023.9 hPa Calm     55 % 0 in /  0.0 mm
20:37 48.7 °F /  9.3 °C 33.6 °F /  0.9 °C 30.2 in /  1023.9 hPa Calm     56 % 0 in /  0.0 mm
20:40 42.4 °F /  5.8 °C 31.5 °F /  -0.3 °C 30.2 in /  1023.9 hPa West 1 mph /  1.6 km/h 2 mph /  3.2 km/h 65 % 0 in /  0.0 mm
20:42 48.6 °F /  9.2 °C 33.6 °F /  0.9 °C 30.2 in /  1023.9 hPa WSW 1.2 mph /  1.9 km/h   56 % 0 in /  0.0 mm
20:47 48.6 °F /  9.2 °C 33.6 °F /  0.9 °C 30.2 in /  1023.9 hPa WSW 2.3 mph /  3.7 km/h 2.3 mph /  3.7 km/h 56 % 0 in /  0.0 mm
20:50 42.1 °F /  5.6 °C 31.3 °F /  -0.4 °C 30.2 in /  1023.9 hPa West 1 mph /  1.6 km/h 2 mph /  3.2 km/h 65 % 0 in /  0.0 mm
20:52 48.4 °F /  9.1 °C 33.4 °F /  0.8 °C 30.2 in /  1023.9 hPa SW 1.2 mph /  1.9 km/h   56 % 0 in /  0.0 mm
20:57 48.2 °F /  9.0 °C 33.3 °F /  0.7 °C 30.2 in /  1023.9 hPa SW 1.2 mph /  1.9 km/h   56 % 0 in /  0.0 mm
21:00 42.3 °F /  5.7 °C 31.6 °F /  -0.2 °C 30.2 in /  1023.9 hPa WSW 1 mph /  1.6 km/h 2 mph /  3.2 km/h 66 % 0 in /  0.0 mm
21:02 48.2 °F /  9.0 °C 33.3 °F /  0.7 °C 30.2 in /  1023.9 hPa WSW 2.3 mph /  3.7 km/h 2.3 mph /  3.7 km/h 56 % 0 in /  0.0 mm
21:07 48.2 °F /  9.0 °C 33.3 °F /  0.7 °C 30.2 in /  1023.9 hPa WSW 2.3 mph /  3.7 km/h 2.3 mph /  3.7 km/h 56 % 0 in /  0.0 mm
21:12 48 °F /  8.9 °C 33.4 °F /  0.8 °C 30.2 in /  1023.9 hPa SW 2.6 mph /  4.2 km/h 2.6 mph /  4.2 km/h 57 % 0 in /  0.0 mm
21:17 47.8 °F /  8.8 °C 33.3 °F /  0.7 °C 30.2 in /  1023.9 hPa WSW 2 mph /  3.2 km/h 2 mph /  3.2 km/h 57 % 0 in /  0.0 mm
21:20 41.9 °F /  5.5 °C 31.6 °F /  -0.2 °C 30.2 in /  1022.9 hPa Calm     67 % 0 in /  0.0 mm
21:27 47.7 °F /  8.7 °C 33.3 °F /  0.7 °C 30.2 in /  1023.9 hPa SW 2.3 mph /  3.7 km/h 2.3 mph /  3.7 km/h 57 % 0 in /  0.0 mm
21:32 47.8 °F /  8.8 °C 33.3 °F /  0.7 °C 30.2 in /  1022.9 hPa SW 2.3 mph /  3.7 km/h 2.3 mph /  3.7 km/h 57 % 0 in /  0.0 mm
21:40 41.9 °F /  5.5 °C 31.6 °F /  -0.2 °C 30.2 in /  1023.9 hPa Calm   1 mph /  1.6 km/h 67 % 0 in /  0.0 mm
21:43 47.7 °F /  8.7 °C 33.6 °F /  0.9 °C 30.2 in /  1022.9 hPa Calm     58 % 0 in /  0.0 mm
21:48 47.5 °F /  8.6 °C 33.4 °F /  0.8 °C 30.2 in /  1023.9 hPa Calm     58 % 0 in /  0.0 mm
21:50 41.4 °F /  5.2 °C 30.7 °F /  -0.7 °C 30.2 in /  1023.9 hPa WSW 1 mph /  1.6 km/h 2 mph /  3.2 km/h 66 % 0 in /  0.0 mm
21:53 47.3 °F /  8.5 °C 33.3 °F /  0.7 °C 30.2 in /  1023.9 hPa WSW 2.3 mph /  3.7 km/h 2.3 mph /  3.7 km/h 58 % 0 in /  0.0 mm
21:58 46.9 °F /  8.3 °C 32.9 °F /  0.5 °C 30.2 in /  1023.9 hPa WSW 2.3 mph /  3.7 km/h 2.3 mph /  3.7 km/h 58 % 0 in /  0.0 mm
22:03 46.9 °F /  8.3 °C 32.9 °F /  0.5 °C 30.2 in /  1023.9 hPa WSW 2.3 mph /  3.7 km/h 2.3 mph /  3.7 km/h 58 % 0 in /  0.0 mm
22:08 46.8 °F /  8.2 °C 33.3 °F /  0.7 °C 30.2 in /  1023.9 hPa WSW 2.3 mph /  3.7 km/h 2.3 mph /  3.7 km/h 59 % 0 in /  0.0 mm
22:10 41.2 °F /  5.1 °C 30.9 °F /  -0.6 °C 30.2 in /  1022.9 hPa WSW 1 mph /  1.6 km/h 2 mph /  3.2 km/h 67 % 0 in /  0.0 mm
22:13 46.8 °F /  8.2 °C 33.3 °F /  0.7 °C 30.2 in /  1023.9 hPa WSW 2.3 mph /  3.7 km/h 2.3 mph /  3.7 km/h 59 % 0 in /  0.0 mm
22:18 46.6 °F /  8.1 °C 33.1 °F /  0.6 °C 30.2 in /  1023.9 hPa WSW 1.2 mph /  1.9 km/h   59 % 0 in /  0.0 mm
22:23 46.4 °F /  8.0 °C 32.7 °F /  0.4 °C 30.2 in /  1023.9 hPa WSW 1.4 mph /  2.3 km/h 1.4 mph /  2.3 km/h 59 % 0 in /  0.0 mm
22:28 46 °F /  7.8 °C 32.9 °F /  0.5 °C 30.2 in /  1023.9 hPa SW 2.3 mph /  3.7 km/h 2.3 mph /  3.7 km/h 60 % 0 in /  0.0 mm
22:30 40.8 °F /  4.9 °C 31.1 °F /  -0.5 °C 30.2 in /  1022.9 hPa Calm     68 % 0 in /  0.0 mm
22:33 45.9 °F /  7.7 °C 32.7 °F /  0.4 °C 30.2 in /  1023.9 hPa WSW 2.3 mph /  3.7 km/h 2.3 mph /  3.7 km/h 60 % 0 in /  0.0 mm
22:40 40.8 °F /  4.9 °C 31.5 °F /  -0.3 °C 30.2 in /  1022.9 hPa WSW 2 mph /  3.2 km/h 2 mph /  3.2 km/h 69 % 0 in /  0.0 mm
22:43 45.7 °F /  7.6 °C 33.1 °F /  0.6 °C 30.2 in /  1023.9 hPa Calm     61 % 0 in /  0.0 mm
22:48 45.7 °F /  7.6 °C 33.1 °F /  0.6 °C 30.2 in /  1023.9 hPa Calm     61 % 0 in /  0.0 mm
22:49 45.5 °F /  7.5 °C 32.7 °F /  0.4 °C 30.2 in /  1023.9 hPa Calm     61 % 0 in /  0.0 mm
22:50 41 °F /  5.0 °C 31.6 °F /  -0.2 °C 30.2 in /  1022.9 hPa Calm   1 mph /  1.6 km/h 69 % 0 in /  0.0 mm
22:54 45.5 °F /  7.5 °C 32.7 °F /  0.4 °C 30.2 in /  1023.9 hPa Calm     61 % 0 in /  0.0 mm
23:00 40.6 °F /  4.8 °C 30.9 °F /  -0.6 °C 30.2 in /  1022.9 hPa NW 1 mph /  1.6 km/h 2 mph /  3.2 km/h 68 % 0 in /  0.0 mm
23:04 45.7 °F /  7.6 °C 33.1 °F /  0.6 °C 30.2 in /  1023.9 hPa Calm     61 % 0 in /  0.0 mm
23:10 40.6 °F /  4.8 °C 30.9 °F /  -0.6 °C 30.2 in /  1023.9 hPa Calm   2 mph /  3.2 km/h 68 % 0 in /  0.0 mm
23:19 45.7 °F /  7.6 °C 33.1 °F /  0.6 °C 30.2 in /  1022.9 hPa NNW 1.4 mph /  2.3 km/h 1.4 mph /  2.3 km/h 61 % 0 in /  0.0 mm
23:20 40.6 °F /  4.8 °C 31.3 °F /  -0.4 °C 30.2 in /  1023.9 hPa Calm   1 mph /  1.6 km/h 69 % 0 in /  0.0 mm
23:29 45.9 °F /  7.7 °C 33.3 °F /  0.7 °C 30.2 in /  1022.9 hPa West 2.3 mph /  3.7 km/h 2.3 mph /  3.7 km/h 61 % 0 in /  0.0 mm
23:30 40.5 °F /  4.7 °C 31.1 °F /  -0.5 °C 30.2 in /  1023.9 hPa Calm   2 mph /  3.2 km/h 69 % 0 in /  0.0 mm
23:40 40.3 °F /  4.6 °C 30.9 °F /  -0.6 °C 30.2 in /  1023.9 hPa Calm     69 % 0 in /  0.0 mm
23:44 45.5 °F /  7.5 °C 33.3 °F /  0.7 °C 30.2 in /  1022.9 hPa WSW 1.2 mph /  1.9 km/h 1.4 mph /  2.3 km/h 62 % 0 in /  0.0 mm
23:50 40.1 °F /  4.5 °C 30.7 °F /  -0.7 °C 30.2 in /  1023.9 hPa NW 1 mph /  1.6 km/h 2 mph /  3.2 km/h 69 % 0 in /  0.0 mm
23:54 45.5 °F /  7.5 °C 33.3 °F /  0.7 °C 30.2 in /  1022.9 hPa West 2.4 mph /  3.9 km/h 2.4 mph /  3.9 km/h 62 % 0 in /  0.0 mm
Meteo Sesrovires
Elogis d' Weather Underground - 3.5 mb

Guio original per  Jim McMurry - jmcmurry@mwt.net Adaptat per a la plantilla per  Wim van der Kuil - Leuven-Template.eu

Trobareu la nostra informacio del temps tambe a:

Weather Underground

AWEKAS